sensor_id;sensor_type;location;lat;lon;timestamp;P1;durP1;ratioP1;P2;durP2;ratioP2
49015;SDS011;34830;44.064;12.566;2023-05-25T00:00:12;15.18;;;7.88;;
49015;SDS011;34830;44.064;12.566;2023-05-25T00:02:40;11.27;;;6.55;;
49015;SDS011;34830;44.064;12.566;2023-05-25T00:05:07;10.57;;;6.30;;
49015;SDS011;34830;44.064;12.566;2023-05-25T00:07:34;9.27;;;5.35;;
49015;SDS011;34830;44.064;12.566;2023-05-25T00:10:00;9.70;;;5.20;;
49015;SDS011;34830;44.064;12.566;2023-05-25T00:12:26;9.52;;;5.10;;
49015;SDS011;34830;44.064;12.566;2023-05-25T00:14:52;9.20;;;5.28;;
49015;SDS011;34830;44.064;12.566;2023-05-25T00:17:18;10.18;;;5.05;;
49015;SDS011;34830;44.064;12.566;2023-05-25T00:19:44;13.13;;;5.43;;
49015;SDS011;34830;44.064;12.566;2023-05-25T00:22:10;13.55;;;4.82;;
49015;SDS011;34830;44.064;12.566;2023-05-25T00:24:37;9.23;;;4.80;;
49015;SDS011;34830;44.064;12.566;2023-05-25T00:27:04;8.85;;;4.53;;
49015;SDS011;34830;44.064;12.566;2023-05-25T00:29:32;7.25;;;3.90;;
49015;SDS011;34830;44.064;12.566;2023-05-25T00:32:00;8.73;;;4.45;;
49015;SDS011;34830;44.064;12.566;2023-05-25T00:34:26;7.00;;;3.72;;
49015;SDS011;34830;44.064;12.566;2023-05-25T00:36:53;7.00;;;4.15;;
49015;SDS011;34830;44.064;12.566;2023-05-25T00:39:19;10.15;;;3.92;;
49015;SDS011;34830;44.064;12.566;2023-05-25T00:41:46;6.65;;;3.50;;
49015;SDS011;34830;44.064;12.566;2023-05-25T00:44:14;7.68;;;3.80;;
49015;SDS011;34830;44.064;12.566;2023-05-25T00:46:43;7.65;;;4.00;;
49015;SDS011;34830;44.064;12.566;2023-05-25T00:49:12;14.48;;;4.95;;
49015;SDS011;34830;44.064;12.566;2023-05-25T00:51:39;6.90;;;3.08;;
49015;SDS011;34830;44.064;12.566;2023-05-25T00:54:05;7.55;;;3.22;;
49015;SDS011;34830;44.064;12.566;2023-05-25T00:56:34;6.05;;;3.35;;
49015;SDS011;34830;44.064;12.566;2023-05-25T00:59:03;6.82;;;2.95;;
49015;SDS011;34830;44.064;12.566;2023-05-25T01:01:32;5.82;;;3.15;;
49015;SDS011;34830;44.064;12.566;2023-05-25T01:04:11;9.05;;;3.35;;
49015;SDS011;34830;44.064;12.566;2023-05-25T01:06:39;10.02;;;3.15;;
49015;SDS011;34830;44.064;12.566;2023-05-25T01:09:08;10.52;;;2.88;;
49015;SDS011;34830;44.064;12.566;2023-05-25T01:11:37;6.38;;;2.85;;
49015;SDS011;34830;44.064;12.566;2023-05-25T01:14:05;5.75;;;2.60;;
49015;SDS011;34830;44.064;12.566;2023-05-25T01:16:31;6.25;;;2.78;;
49015;SDS011;34830;44.064;12.566;2023-05-25T01:19:00;7.00;;;2.70;;
49015;SDS011;34830;44.064;12.566;2023-05-25T01:21:39;5.85;;;3.15;;
49015;SDS011;34830;44.064;12.566;2023-05-25T01:24:17;5.05;;;2.50;;
49015;SDS011;34830;44.064;12.566;2023-05-25T01:27:11;4.78;;;2.55;;
49015;SDS011;34830;44.064;12.566;2023-05-25T01:29:36;10.05;;;2.67;;
49015;SDS011;34830;44.064;12.566;2023-05-25T01:32:05;8.07;;;2.50;;
49015;SDS011;34830;44.064;12.566;2023-05-25T01:34:33;11.63;;;2.78;;
49015;SDS011;34830;44.064;12.566;2023-05-25T01:36:59;12.82;;;3.10;;
49015;SDS011;34830;44.064;12.566;2023-05-25T01:39:25;5.55;;;2.85;;
49015;SDS011;34830;44.064;12.566;2023-05-25T01:41:51;7.20;;;2.40;;
49015;SDS011;34830;44.064;12.566;2023-05-25T01:44:17;6.72;;;2.97;;
49015;SDS011;34830;44.064;12.566;2023-05-25T01:46:44;7.97;;;2.65;;
49015;SDS011;34830;44.064;12.566;2023-05-25T01:54:52;7.32;;;3.25;;
49015;SDS011;34830;44.064;12.566;2023-05-25T01:57:20;9.85;;;3.50;;
49015;SDS011;34830;44.064;12.566;2023-05-25T01:59:47;11.00;;;6.07;;
49015;SDS011;34830;44.064;12.566;2023-05-25T02:02:16;9.93;;;4.10;;
49015;SDS011;34830;44.064;12.566;2023-05-25T02:04:44;15.57;;;5.70;;
49015;SDS011;34830;44.064;12.566;2023-05-25T02:07:10;8.93;;;4.65;;
49015;SDS011;34830;44.064;12.566;2023-05-25T02:09:36;8.18;;;3.67;;
49015;SDS011;34830;44.064;12.566;2023-05-25T02:12:03;6.82;;;3.80;;
49015;SDS011;34830;44.064;12.566;2023-05-25T02:14:29;9.45;;;3.50;;
49015;SDS011;34830;44.064;12.566;2023-05-25T02:16:55;7.00;;;3.65;;
49015;SDS011;34830;44.064;12.566;2023-05-25T02:19:22;9.05;;;3.10;;
49015;SDS011;34830;44.064;12.566;2023-05-25T02:21:48;6.57;;;3.10;;
49015;SDS011;34830;44.064;12.566;2023-05-25T02:24:14;9.77;;;3.70;;
49015;SDS011;34830;44.064;12.566;2023-05-25T02:26:40;8.70;;;3.33;;
49015;SDS011;34830;44.064;12.566;2023-05-25T02:29:07;7.18;;;2.90;;
49015;SDS011;34830;44.064;12.566;2023-05-25T02:31:33;5.45;;;2.53;;
49015;SDS011;34830;44.064;12.566;2023-05-25T02:34:00;8.48;;;4.35;;
49015;SDS011;34830;44.064;12.566;2023-05-25T02:36:26;9.20;;;3.25;;
49015;SDS011;34830;44.064;12.566;2023-05-25T02:38:53;4.38;;;3.22;;
49015;SDS011;34830;44.064;12.566;2023-05-25T02:41:19;11.57;;;3.55;;
49015;SDS011;34830;44.064;12.566;2023-05-25T02:43:45;10.80;;;2.63;;
49015;SDS011;34830;44.064;12.566;2023-05-25T02:46:12;7.20;;;2.60;;
49015;SDS011;34830;44.064;12.566;2023-05-25T02:48:40;8.43;;;2.67;;
49015;SDS011;34830;44.064;12.566;2023-05-25T02:51:06;9.50;;;2.38;;
49015;SDS011;34830;44.064;12.566;2023-05-25T02:53:32;4.25;;;2.53;;
49015;SDS011;34830;44.064;12.566;2023-05-25T02:55:59;10.43;;;2.63;;
49015;SDS011;34830;44.064;12.566;2023-05-25T02:58:30;6.05;;;2.50;;
49015;SDS011;34830;44.064;12.566;2023-05-25T03:01:04;7.30;;;2.67;;
49015;SDS011;34830;44.064;12.566;2023-05-25T03:06:02;4.78;;;2.50;;
49015;SDS011;34830;44.064;12.566;2023-05-25T03:08:31;7.00;;;2.95;;
49015;SDS011;34830;44.064;12.566;2023-05-25T03:10:58;6.65;;;2.80;;
49015;SDS011;34830;44.064;12.566;2023-05-25T03:13:25;9.05;;;4.43;;
49015;SDS011;34830;44.064;12.566;2023-05-25T03:15:51;9.32;;;3.30;;
49015;SDS011;34830;44.064;12.566;2023-05-25T03:18:17;5.15;;;3.10;;
49015;SDS011;34830;44.064;12.566;2023-05-25T03:20:44;10.07;;;3.30;;
49015;SDS011;34830;44.064;12.566;2023-05-25T03:23:10;6.18;;;3.55;;
49015;SDS011;34830;44.064;12.566;2023-05-25T03:25:37;6.18;;;3.20;;
49015;SDS011;34830;44.064;12.566;2023-05-25T03:28:04;9.57;;;3.90;;
49015;SDS011;34830;44.064;12.566;2023-05-25T03:30:30;9.65;;;4.05;;
49015;SDS011;34830;44.064;12.566;2023-05-25T03:32:56;8.90;;;4.22;;
49015;SDS011;34830;44.064;12.566;2023-05-25T03:35:24;9.73;;;4.15;;
49015;SDS011;34830;44.064;12.566;2023-05-25T03:37:50;8.02;;;4.57;;
49015;SDS011;34830;44.064;12.566;2023-05-25T03:40:16;9.48;;;4.95;;
49015;SDS011;34830;44.064;12.566;2023-05-25T03:42:43;13.35;;;6.13;;
49015;SDS011;34830;44.064;12.566;2023-05-25T03:45:09;9.63;;;6.32;;
49015;SDS011;34830;44.064;12.566;2023-05-25T03:47:36;18.60;;;7.68;;
49015;SDS011;34830;44.064;12.566;2023-05-25T03:50:02;14.68;;;8.40;;
49015;SDS011;34830;44.064;12.566;2023-05-25T03:52:29;14.85;;;8.55;;
49015;SDS011;34830;44.064;12.566;2023-05-25T03:54:55;16.75;;;8.45;;
49015;SDS011;34830;44.064;12.566;2023-05-25T03:57:22;18.10;;;9.45;;
49015;SDS011;34830;44.064;12.566;2023-05-25T03:59:49;20.10;;;10.10;;
49015;SDS011;34830;44.064;12.566;2023-05-25T04:02:15;15.75;;;10.50;;
49015;SDS011;34830;44.064;12.566;2023-05-25T04:04:41;17.77;;;11.27;;
49015;SDS011;34830;44.064;12.566;2023-05-25T04:07:07;20.85;;;12.00;;
49015;SDS011;34830;44.064;12.566;2023-05-25T04:09:33;20.88;;;10.73;;
49015;SDS011;34830;44.064;12.566;2023-05-25T04:11:59;16.90;;;9.55;;
49015;SDS011;34830;44.064;12.566;2023-05-25T04:14:27;17.88;;;10.05;;
49015;SDS011;34830;44.064;12.566;2023-05-25T04:16:53;17.70;;;9.02;;
49015;SDS011;34830;44.064;12.566;2023-05-25T04:19:19;13.30;;;9.02;;
49015;SDS011;34830;44.064;12.566;2023-05-25T04:21:46;14.95;;;8.57;;
49015;SDS011;34830;44.064;12.566;2023-05-25T04:24:12;15.32;;;9.20;;
49015;SDS011;34830;44.064;12.566;2023-05-25T04:26:38;16.77;;;10.00;;
49015;SDS011;34830;44.064;12.566;2023-05-25T04:29:05;14.50;;;8.50;;
49015;SDS011;34830;44.064;12.566;2023-05-25T04:31:54;11.88;;;6.28;;
49015;SDS011;34830;44.064;12.566;2023-05-25T04:34:40;11.70;;;6.15;;
49015;SDS011;34830;44.064;12.566;2023-05-25T04:37:14;9.02;;;5.03;;
49015;SDS011;34830;44.064;12.566;2023-05-25T04:39:40;11.48;;;5.05;;
49015;SDS011;34830;44.064;12.566;2023-05-25T04:42:06;7.07;;;5.03;;
49015;SDS011;34830;44.064;12.566;2023-05-25T04:44:33;10.52;;;4.57;;
49015;SDS011;34830;44.064;12.566;2023-05-25T04:47:00;9.93;;;4.75;;
49015;SDS011;34830;44.064;12.566;2023-05-25T04:49:30;12.35;;;5.00;;
49015;SDS011;34830;44.064;12.566;2023-05-25T04:51:56;8.23;;;3.75;;
49015;SDS011;34830;44.064;12.566;2023-05-25T04:54:23;8.68;;;4.40;;
49015;SDS011;34830;44.064;12.566;2023-05-25T04:56:49;8.20;;;4.35;;
49015;SDS011;34830;44.064;12.566;2023-05-25T04:59:15;8.20;;;3.78;;
49015;SDS011;34830;44.064;12.566;2023-05-25T05:01:42;8.73;;;4.63;;
49015;SDS011;34830;44.064;12.566;2023-05-25T05:04:11;14.93;;;4.70;;
49015;SDS011;34830;44.064;12.566;2023-05-25T05:06:38;7.43;;;4.90;;
49015;SDS011;34830;44.064;12.566;2023-05-25T05:09:05;9.05;;;4.68;;
49015;SDS011;34830;44.064;12.566;2023-05-25T05:11:31;11.48;;;5.78;;
49015;SDS011;34830;44.064;12.566;2023-05-25T05:13:58;14.98;;;5.60;;
49015;SDS011;34830;44.064;12.566;2023-05-25T05:16:24;12.02;;;5.43;;
49015;SDS011;34830;44.064;12.566;2023-05-25T05:18:50;11.80;;;5.78;;
49015;SDS011;34830;44.064;12.566;2023-05-25T05:21:16;12.50;;;6.65;;
49015;SDS011;34830;44.064;12.566;2023-05-25T05:23:42;12.93;;;7.53;;
49015;SDS011;34830;44.064;12.566;2023-05-25T05:26:09;15.30;;;8.77;;
49015;SDS011;34830;44.064;12.566;2023-05-25T05:28:36;14.95;;;8.07;;
49015;SDS011;34830;44.064;12.566;2023-05-25T05:31:03;12.85;;;7.97;;
49015;SDS011;34830;44.064;12.566;2023-05-25T05:33:30;12.10;;;7.82;;
49015;SDS011;34830;44.064;12.566;2023-05-25T05:35:56;17.00;;;9.07;;
49015;SDS011;34830;44.064;12.566;2023-05-25T05:38:23;14.98;;;8.70;;
49015;SDS011;34830;44.064;12.566;2023-05-25T05:40:49;17.73;;;9.20;;
49015;SDS011;34830;44.064;12.566;2023-05-25T05:45:47;15.48;;;9.95;;
49015;SDS011;34830;44.064;12.566;2023-05-25T05:48:13;20.80;;;11.50;;
49015;SDS011;34830;44.064;12.566;2023-05-25T05:50:39;19.60;;;12.40;;
49015;SDS011;34830;44.064;12.566;2023-05-25T05:53:05;23.98;;;11.77;;
49015;SDS011;34830;44.064;12.566;2023-05-25T05:55:32;23.17;;;13.00;;
49015;SDS011;34830;44.064;12.566;2023-05-25T05:57:58;18.33;;;11.98;;
49015;SDS011;34830;44.064;12.566;2023-05-25T06:00:24;20.25;;;12.15;;
49015;SDS011;34830;44.064;12.566;2023-05-25T06:02:51;21.98;;;12.88;;
49015;SDS011;34830;44.064;12.566;2023-05-25T06:05:23;19.42;;;12.65;;
49015;SDS011;34830;44.064;12.566;2023-05-25T06:07:51;21.85;;;12.27;;
49015;SDS011;34830;44.064;12.566;2023-05-25T06:10:19;22.17;;;13.98;;
49015;SDS011;34830;44.064;12.566;2023-05-25T06:12:45;20.48;;;14.57;;
49015;SDS011;34830;44.064;12.566;2023-05-25T06:15:11;19.20;;;13.30;;
49015;SDS011;34830;44.064;12.566;2023-05-25T06:17:39;18.05;;;12.80;;
49015;SDS011;34830;44.064;12.566;2023-05-25T06:20:05;23.73;;;12.88;;
49015;SDS011;34830;44.064;12.566;2023-05-25T06:22:31;24.50;;;12.43;;
49015;SDS011;34830;44.064;12.566;2023-05-25T06:24:58;23.05;;;13.50;;
49015;SDS011;34830;44.064;12.566;2023-05-25T06:27:24;21.88;;;13.98;;
49015;SDS011;34830;44.064;12.566;2023-05-25T06:29:51;24.60;;;15.02;;
49015;SDS011;34830;44.064;12.566;2023-05-25T06:32:17;24.92;;;15.15;;
49015;SDS011;34830;44.064;12.566;2023-05-25T06:34:44;26.05;;;14.82;;
49015;SDS011;34830;44.064;12.566;2023-05-25T06:37:10;23.58;;;15.65;;
49015;SDS011;34830;44.064;12.566;2023-05-25T06:39:37;24.40;;;13.93;;
49015;SDS011;34830;44.064;12.566;2023-05-25T06:42:04;23.80;;;16.05;;
49015;SDS011;34830;44.064;12.566;2023-05-25T06:44:32;28.40;;;15.65;;
49015;SDS011;34830;44.064;12.566;2023-05-25T06:47:03;23.23;;;15.60;;
49015;SDS011;34830;44.064;12.566;2023-05-25T06:49:30;30.20;;;15.15;;
49015;SDS011;34830;44.064;12.566;2023-05-25T06:51:56;22.25;;;15.00;;
49015;SDS011;34830;44.064;12.566;2023-05-25T06:54:22;25.10;;;14.75;;
49015;SDS011;34830;44.064;12.566;2023-05-25T06:56:48;22.27;;;14.50;;
49015;SDS011;34830;44.064;12.566;2023-05-25T06:59:14;26.75;;;15.45;;
49015;SDS011;34830;44.064;12.566;2023-05-25T07:01:40;22.73;;;14.80;;
49015;SDS011;34830;44.064;12.566;2023-05-25T07:04:06;25.92;;;15.18;;
49015;SDS011;34830;44.064;12.566;2023-05-25T07:06:32;25.10;;;15.63;;
49015;SDS011;34830;44.064;12.566;2023-05-25T07:08:58;23.95;;;14.77;;
49015;SDS011;34830;44.064;12.566;2023-05-25T07:11:24;24.40;;;14.65;;
49015;SDS011;34830;44.064;12.566;2023-05-25T07:13:50;23.10;;;15.05;;
49015;SDS011;34830;44.064;12.566;2023-05-25T07:16:16;21.92;;;14.10;;
49015;SDS011;34830;44.064;12.566;2023-05-25T07:18:42;26.48;;;15.30;;
49015;SDS011;34830;44.064;12.566;2023-05-25T07:21:09;22.50;;;13.63;;
49015;SDS011;34830;44.064;12.566;2023-05-25T07:23:36;25.05;;;14.77;;
49015;SDS011;34830;44.064;12.566;2023-05-25T07:26:02;28.02;;;13.95;;
49015;SDS011;34830;44.064;12.566;2023-05-25T07:28:29;30.77;;;14.85;;
49015;SDS011;34830;44.064;12.566;2023-05-25T07:30:55;19.83;;;13.52;;
49015;SDS011;34830;44.064;12.566;2023-05-25T07:33:21;22.70;;;13.30;;
49015;SDS011;34830;44.064;12.566;2023-05-25T07:35:47;19.63;;;14.20;;
49015;SDS011;34830;44.064;12.566;2023-05-25T07:38:13;26.13;;;14.50;;
49015;SDS011;34830;44.064;12.566;2023-05-25T07:40:39;20.08;;;13.75;;
49015;SDS011;34830;44.064;12.566;2023-05-25T07:43:05;25.17;;;15.23;;
49015;SDS011;34830;44.064;12.566;2023-05-25T07:45:31;20.48;;;14.23;;
49015;SDS011;34830;44.064;12.566;2023-05-25T07:47:57;25.50;;;15.95;;
49015;SDS011;34830;44.064;12.566;2023-05-25T07:50:23;26.02;;;16.05;;
49015;SDS011;34830;44.064;12.566;2023-05-25T07:52:50;28.67;;;15.77;;
49015;SDS011;34830;44.064;12.566;2023-05-25T07:55:16;26.92;;;17.30;;
49015;SDS011;34830;44.064;12.566;2023-05-25T07:57:44;20.70;;;16.00;;
49015;SDS011;34830;44.064;12.566;2023-05-25T08:00:11;20.27;;;14.65;;
49015;SDS011;34830;44.064;12.566;2023-05-25T08:02:40;24.50;;;16.23;;
49015;SDS011;34830;44.064;12.566;2023-05-25T08:05:07;22.15;;;14.57;;
49015;SDS011;34830;44.064;12.566;2023-05-25T08:07:33;21.65;;;15.63;;
49015;SDS011;34830;44.064;12.566;2023-05-25T08:10:01;23.05;;;15.27;;
49015;SDS011;34830;44.064;12.566;2023-05-25T08:12:28;20.38;;;15.95;;
49015;SDS011;34830;44.064;12.566;2023-05-25T08:14:55;21.35;;;14.77;;
49015;SDS011;34830;44.064;12.566;2023-05-25T08:17:21;20.45;;;14.43;;
49015;SDS011;34830;44.064;12.566;2023-05-25T08:19:47;21.73;;;16.10;;
49015;SDS011;34830;44.064;12.566;2023-05-25T08:22:15;21.98;;;16.33;;
49015;SDS011;34830;44.064;12.566;2023-05-25T08:24:41;23.98;;;15.07;;
49015;SDS011;34830;44.064;12.566;2023-05-25T08:27:07;18.95;;;14.50;;
49015;SDS011;34830;44.064;12.566;2023-05-25T08:29:33;26.13;;;15.85;;
49015;SDS011;34830;44.064;12.566;2023-05-25T08:31:59;20.80;;;14.27;;
49015;SDS011;34830;44.064;12.566;2023-05-25T08:34:26;21.70;;;15.95;;
49015;SDS011;34830;44.064;12.566;2023-05-25T08:36:53;20.15;;;16.30;;
49015;SDS011;34830;44.064;12.566;2023-05-25T08:39:19;23.95;;;17.25;;
49015;SDS011;34830;44.064;12.566;2023-05-25T08:41:45;25.73;;;17.48;;
49015;SDS011;34830;44.064;12.566;2023-05-25T08:44:11;23.63;;;17.42;;
49015;SDS011;34830;44.064;12.566;2023-05-25T08:46:39;20.42;;;15.43;;
49015;SDS011;34830;44.064;12.566;2023-05-25T08:49:09;22.75;;;16.27;;
49015;SDS011;34830;44.064;12.566;2023-05-25T08:51:37;27.92;;;18.15;;
49015;SDS011;34830;44.064;12.566;2023-05-25T08:54:06;27.85;;;18.38;;
49015;SDS011;34830;44.064;12.566;2023-05-25T08:56:47;28.20;;;17.67;;
49015;SDS011;34830;44.064;12.566;2023-05-25T09:04:55;24.63;;;16.55;;
49015;SDS011;34830;44.064;12.566;2023-05-25T09:07:21;24.88;;;17.95;;
49015;SDS011;34830;44.064;12.566;2023-05-25T09:09:47;22.00;;;16.67;;
49015;SDS011;34830;44.064;12.566;2023-05-25T09:12:14;23.77;;;18.77;;
49015;SDS011;34830;44.064;12.566;2023-05-25T09:14:40;26.73;;;18.23;;
49015;SDS011;34830;44.064;12.566;2023-05-25T09:17:11;26.10;;;17.45;;
49015;SDS011;34830;44.064;12.566;2023-05-25T09:19:38;23.02;;;17.17;;
49015;SDS011;34830;44.064;12.566;2023-05-25T09:22:04;21.75;;;17.17;;
49015;SDS011;34830;44.064;12.566;2023-05-25T09:24:30;25.33;;;17.33;;
49015;SDS011;34830;44.064;12.566;2023-05-25T09:26:56;22.58;;;17.38;;
49015;SDS011;34830;44.064;12.566;2023-05-25T09:29:22;27.25;;;18.10;;
49015;SDS011;34830;44.064;12.566;2023-05-25T09:31:48;29.85;;;19.63;;
49015;SDS011;34830;44.064;12.566;2023-05-25T09:34:14;29.27;;;19.65;;
49015;SDS011;34830;44.064;12.566;2023-05-25T09:36:40;33.13;;;20.58;;
49015;SDS011;34830;44.064;12.566;2023-05-25T09:39:08;29.27;;;20.63;;
49015;SDS011;34830;44.064;12.566;2023-05-25T09:41:35;26.85;;;20.75;;
49015;SDS011;34830;44.064;12.566;2023-05-25T09:44:03;28.05;;;19.48;;
49015;SDS011;34830;44.064;12.566;2023-05-25T09:46:29;32.33;;;20.80;;
49015;SDS011;34830;44.064;12.566;2023-05-25T09:48:58;28.15;;;20.88;;
49015;SDS011;34830;44.064;12.566;2023-05-25T09:51:25;26.48;;;19.48;;
49015;SDS011;34830;44.064;12.566;2023-05-25T09:53:51;31.15;;;19.13;;
49015;SDS011;34830;44.064;12.566;2023-05-25T09:56:17;28.08;;;19.58;;
49015;SDS011;34830;44.064;12.566;2023-05-25T09:58:44;26.00;;;20.33;;
49015;SDS011;34830;44.064;12.566;2023-05-25T10:01:10;28.17;;;20.80;;
49015;SDS011;34830;44.064;12.566;2023-05-25T10:03:42;32.67;;;22.38;;
49015;SDS011;34830;44.064;12.566;2023-05-25T10:06:11;27.38;;;20.73;;
49015;SDS011;34830;44.064;12.566;2023-05-25T10:08:39;30.48;;;19.88;;
49015;SDS011;34830;44.064;12.566;2023-05-25T10:11:14;24.25;;;18.10;;
49015;SDS011;34830;44.064;12.566;2023-05-25T10:13:44;26.48;;;19.35;;
49015;SDS011;34830;44.064;12.566;2023-05-25T10:16:13;24.88;;;19.17;;
49015;SDS011;34830;44.064;12.566;2023-05-25T10:18:47;25.63;;;19.15;;
49015;SDS011;34830;44.064;12.566;2023-05-25T10:21:40;27.30;;;19.15;;
49015;SDS011;34830;44.064;12.566;2023-05-25T10:24:13;29.63;;;19.92;;
49015;SDS011;34830;44.064;12.566;2023-05-25T10:26:50;26.73;;;20.65;;
49015;SDS011;34830;44.064;12.566;2023-05-25T10:29:19;28.40;;;20.02;;
49015;SDS011;34830;44.064;12.566;2023-05-25T10:31:46;28.98;;;19.60;;
49015;SDS011;34830;44.064;12.566;2023-05-25T10:34:12;31.65;;;21.10;;
49015;SDS011;34830;44.064;12.566;2023-05-25T10:36:39;22.83;;;17.13;;
49015;SDS011;34830;44.064;12.566;2023-05-25T10:39:06;25.58;;;18.83;;
49015;SDS011;34830;44.064;12.566;2023-05-25T10:41:33;24.08;;;18.60;;
49015;SDS011;34830;44.064;12.566;2023-05-25T10:43:59;20.85;;;15.57;;
49015;SDS011;34830;44.064;12.566;2023-05-25T10:46:26;18.02;;;14.45;;
49015;SDS011;34830;44.064;12.566;2023-05-25T10:48:52;14.20;;;12.30;;
49015;SDS011;34830;44.064;12.566;2023-05-25T10:51:20;12.50;;;10.13;;
49015;SDS011;34830;44.064;12.566;2023-05-25T10:53:47;11.43;;;7.80;;
49015;SDS011;34830;44.064;12.566;2023-05-25T10:56:23;8.98;;;6.20;;
49015;SDS011;34830;44.064;12.566;2023-05-25T10:58:49;9.85;;;6.28;;
49015;SDS011;34830;44.064;12.566;2023-05-25T11:01:17;12.25;;;6.88;;
49015;SDS011;34830;44.064;12.566;2023-05-25T11:06:13;9.95;;;5.70;;
49015;SDS011;34830;44.064;12.566;2023-05-25T11:08:47;13.27;;;6.60;;
49015;SDS011;34830;44.064;12.566;2023-05-25T11:11:19;13.60;;;6.90;;
49015;SDS011;34830;44.064;12.566;2023-05-25T11:13:46;8.05;;;5.80;;
49015;SDS011;34830;44.064;12.566;2023-05-25T11:18:50;9.45;;;4.97;;
49015;SDS011;34830;44.064;12.566;2023-05-25T11:26:22;8.40;;;5.75;;
49015;SDS011;34830;44.064;12.566;2023-05-25T11:28:49;8.95;;;6.25;;
49015;SDS011;34830;44.064;12.566;2023-05-25T11:31:18;8.23;;;5.22;;
49015;SDS011;34830;44.064;12.566;2023-05-25T11:33:55;10.55;;;6.90;;
49015;SDS011;34830;44.064;12.566;2023-05-25T11:36:22;8.60;;;5.35;;
49015;SDS011;34830;44.064;12.566;2023-05-25T11:38:49;8.85;;;6.10;;
49015;SDS011;34830;44.064;12.566;2023-05-25T11:41:17;8.02;;;5.30;;
49015;SDS011;34830;44.064;12.566;2023-05-25T11:43:44;8.65;;;4.80;;
49015;SDS011;34830;44.064;12.566;2023-05-25T11:46:10;6.40;;;4.45;;
49015;SDS011;34830;44.064;12.566;2023-05-25T11:48:41;7.75;;;4.10;;
49015;SDS011;34830;44.064;12.566;2023-05-25T11:51:08;8.98;;;4.40;;
49015;SDS011;34830;44.064;12.566;2023-05-25T11:53:40;5.43;;;3.70;;
49015;SDS011;34830;44.064;12.566;2023-05-25T11:56:07;10.07;;;4.53;;
49015;SDS011;34830;44.064;12.566;2023-05-25T11:58:33;6.93;;;3.38;;
49015;SDS011;34830;44.064;12.566;2023-05-25T12:03:41;8.07;;;3.35;;
49015;SDS011;34830;44.064;12.566;2023-05-25T12:06:07;7.10;;;3.47;;
49015;SDS011;34830;44.064;12.566;2023-05-25T12:08:34;7.07;;;3.45;;
49015;SDS011;34830;44.064;12.566;2023-05-25T12:11:01;7.00;;;3.65;;
49015;SDS011;34830;44.064;12.566;2023-05-25T12:13:28;8.57;;;3.47;;
49015;SDS011;34830;44.064;12.566;2023-05-25T12:15:55;10.20;;;5.50;;
49015;SDS011;34830;44.064;12.566;2023-05-25T12:18:26;7.57;;;3.53;;
49015;SDS011;34830;44.064;12.566;2023-05-25T12:20:52;6.45;;;3.92;;
49015;SDS011;34830;44.064;12.566;2023-05-25T12:23:19;6.20;;;3.17;;
49015;SDS011;34830;44.064;12.566;2023-05-25T12:25:45;8.25;;;3.33;;
49015;SDS011;34830;44.064;12.566;2023-05-25T12:28:12;7.03;;;3.20;;
49015;SDS011;34830;44.064;12.566;2023-05-25T12:30:39;5.22;;;3.17;;
49015;SDS011;34830;44.064;12.566;2023-05-25T12:33:05;6.53;;;3.10;;
49015;SDS011;34830;44.064;12.566;2023-05-25T12:35:45;6.03;;;2.70;;
49015;SDS011;34830;44.064;12.566;2023-05-25T12:38:13;15.75;;;10.07;;
49015;SDS011;34830;44.064;12.566;2023-05-25T12:40:42;7.75;;;3.10;;
49015;SDS011;34830;44.064;12.566;2023-05-25T12:43:08;5.25;;;3.28;;
49015;SDS011;34830;44.064;12.566;2023-05-25T12:45:39;5.03;;;2.90;;
49015;SDS011;34830;44.064;12.566;2023-05-25T12:48:06;6.45;;;2.55;;
49015;SDS011;34830;44.064;12.566;2023-05-25T12:50:32;5.05;;;2.67;;
49015;SDS011;34830;44.064;12.566;2023-05-25T12:52:59;5.30;;;2.63;;
49015;SDS011;34830;44.064;12.566;2023-05-25T12:55:27;6.35;;;2.50;;
49015;SDS011;34830;44.064;12.566;2023-05-25T12:57:55;4.70;;;2.78;;
49015;SDS011;34830;44.064;12.566;2023-05-25T13:00:24;6.40;;;3.08;;
49015;SDS011;34830;44.064;12.566;2023-05-25T13:02:52;5.05;;;2.30;;
49015;SDS011;34830;44.064;12.566;2023-05-25T13:05:23;6.80;;;2.80;;
49015;SDS011;34830;44.064;12.566;2023-05-25T13:07:55;10.25;;;3.00;;
49015;SDS011;34830;44.064;12.566;2023-05-25T13:10:22;5.03;;;2.40;;
49015;SDS011;34830;44.064;12.566;2023-05-25T13:12:49;5.45;;;2.40;;
49015;SDS011;34830;44.064;12.566;2023-05-25T13:15:16;5.57;;;2.40;;
49015;SDS011;34830;44.064;12.566;2023-05-25T13:17:47;6.43;;;2.90;;
49015;SDS011;34830;44.064;12.566;2023-05-25T13:20:17;6.00;;;2.67;;
49015;SDS011;34830;44.064;12.566;2023-05-25T13:22:45;6.35;;;2.55;;
49015;SDS011;34830;44.064;12.566;2023-05-25T13:25:13;6.28;;;2.50;;
49015;SDS011;34830;44.064;12.566;2023-05-25T13:27:46;5.57;;;3.15;;
49015;SDS011;34830;44.064;12.566;2023-05-25T13:30:13;5.72;;;2.67;;
49015;SDS011;34830;44.064;12.566;2023-05-25T13:32:40;6.10;;;2.70;;
49015;SDS011;34830;44.064;12.566;2023-05-25T13:35:10;24.00;;;4.35;;
49015;SDS011;34830;44.064;12.566;2023-05-25T13:38:00;7.05;;;2.88;;
49015;SDS011;34830;44.064;12.566;2023-05-25T13:40:26;6.63;;;2.55;;
49015;SDS011;34830;44.064;12.566;2023-05-25T13:42:53;5.95;;;2.70;;
49015;SDS011;34830;44.064;12.566;2023-05-25T13:45:20;5.82;;;2.55;;
49015;SDS011;34830;44.064;12.566;2023-05-25T13:47:46;6.88;;;2.65;;
49015;SDS011;34830;44.064;12.566;2023-05-25T13:50:12;6.55;;;3.13;;
49015;SDS011;34830;44.064;12.566;2023-05-25T13:52:39;4.82;;;2.55;;
49015;SDS011;34830;44.064;12.566;2023-05-25T13:55:05;7.60;;;2.92;;
49015;SDS011;34830;44.064;12.566;2023-05-25T13:57:31;7.68;;;2.75;;
49015;SDS011;34830;44.064;12.566;2023-05-25T13:59:58;5.85;;;2.38;;
49015;SDS011;34830;44.064;12.566;2023-05-25T14:02:24;6.88;;;3.33;;
49015;SDS011;34830;44.064;12.566;2023-05-25T14:04:50;5.93;;;2.78;;
49015;SDS011;34830;44.064;12.566;2023-05-25T14:07:16;7.30;;;2.83;;
49015;SDS011;34830;44.064;12.566;2023-05-25T14:09:42;5.10;;;2.58;;
49015;SDS011;34830;44.064;12.566;2023-05-25T14:12:08;6.35;;;2.85;;
49015;SDS011;34830;44.064;12.566;2023-05-25T14:14:34;6.13;;;3.25;;
49015;SDS011;34830;44.064;12.566;2023-05-25T14:17:00;7.88;;;2.72;;
49015;SDS011;34830;44.064;12.566;2023-05-25T14:19:26;8.38;;;2.60;;
49015;SDS011;34830;44.064;12.566;2023-05-25T14:21:52;7.35;;;2.45;;
49015;SDS011;34830;44.064;12.566;2023-05-25T14:24:18;6.63;;;2.63;;
49015;SDS011;34830;44.064;12.566;2023-05-25T14:26:44;4.72;;;2.70;;
49015;SDS011;34830;44.064;12.566;2023-05-25T14:29:11;5.57;;;2.83;;
49015;SDS011;34830;44.064;12.566;2023-05-25T14:31:37;5.63;;;2.80;;
49015;SDS011;34830;44.064;12.566;2023-05-25T14:34:03;5.78;;;2.38;;
49015;SDS011;34830;44.064;12.566;2023-05-25T14:36:29;5.35;;;2.72;;
49015;SDS011;34830;44.064;12.566;2023-05-25T14:38:56;4.15;;;2.80;;
49015;SDS011;34830;44.064;12.566;2023-05-25T14:41:22;5.00;;;2.63;;
49015;SDS011;34830;44.064;12.566;2023-05-25T14:43:48;9.60;;;3.38;;
49015;SDS011;34830;44.064;12.566;2023-05-25T14:46:14;5.50;;;3.10;;
49015;SDS011;34830;44.064;12.566;2023-05-25T14:48:40;4.00;;;2.85;;
49015;SDS011;34830;44.064;12.566;2023-05-25T14:51:06;8.90;;;3.00;;
49015;SDS011;34830;44.064;12.566;2023-05-25T14:53:32;7.38;;;3.08;;